sensor_id;sensor_type;location;lat;lon;timestamp;pressure;altitude;pressure_sealevel;temperature;humidity
40794;BME280;26502;51.886;15.604;2023-02-18T00:03:59;100445.13;;;7.43;56.87
40794;BME280;26502;51.886;15.604;2023-02-18T00:09:06;100454.38;;;7.33;57.13
40794;BME280;26502;51.886;15.604;2023-02-18T00:14:14;100460.34;;;7.27;57.03
40794;BME280;26502;51.886;15.604;2023-02-18T00:19:21;100459.10;;;7.19;57.62
40794;BME280;26502;51.886;15.604;2023-02-18T00:24:27;100463.02;;;7.09;57.96
40794;BME280;26502;51.886;15.604;2023-02-18T00:29:34;100460.55;;;7.01;58.05
40794;BME280;26502;51.886;15.604;2023-02-18T00:34:40;100471.54;;;6.98;58.51
40794;BME280;26502;51.886;15.604;2023-02-18T00:39:47;100476.43;;;6.92;58.79
40794;BME280;26502;51.886;15.604;2023-02-18T00:44:53;100474.48;;;6.84;59.18
40794;BME280;26502;51.886;15.604;2023-02-18T00:49:59;100476.41;;;6.75;59.46
40794;BME280;26502;51.886;15.604;2023-02-18T00:55:06;100480.68;;;6.65;59.88
40794;BME280;26502;51.886;15.604;2023-02-18T01:00:14;100485.55;;;6.59;60.26
40794;BME280;26502;51.886;15.604;2023-02-18T01:05:20;100473.79;;;6.57;60.45
40794;BME280;26502;51.886;15.604;2023-02-18T01:10:27;100485.80;;;6.55;60.63
40794;BME280;26502;51.886;15.604;2023-02-18T01:15:34;100486.04;;;6.52;60.80
40794;BME280;26502;51.886;15.604;2023-02-18T01:20:42;100490.70;;;6.49;61.00
40794;BME280;26502;51.886;15.604;2023-02-18T01:25:49;100493.12;;;6.42;60.98
40794;BME280;26502;51.886;15.604;2023-02-18T01:30:55;100499.98;;;6.33;61.29
40794;BME280;26502;51.886;15.604;2023-02-18T01:36:06;100495.83;;;6.28;61.40
40794;BME280;26502;51.886;15.604;2023-02-18T01:41:12;100505.44;;;6.24;61.74
40794;BME280;26502;51.886;15.604;2023-02-18T01:46:20;100503.72;;;6.21;61.99
40794;BME280;26502;51.886;15.604;2023-02-18T01:51:29;100508.14;;;6.20;62.12
40794;BME280;26502;51.886;15.604;2023-02-18T01:56:41;100507.34;;;6.15;62.34
40794;BME280;26502;51.886;15.604;2023-02-18T02:01:50;100501.50;;;6.06;62.65
40794;BME280;26502;51.886;15.604;2023-02-18T02:06:57;100503.17;;;6.01;62.86
40794;BME280;26502;51.886;15.604;2023-02-18T02:12:16;100504.44;;;5.97;63.04
40794;BME280;26502;51.886;15.604;2023-02-18T02:17:34;100506.24;;;5.94;63.24
40794;BME280;26502;51.886;15.604;2023-02-18T02:28:33;100506.17;;;5.86;63.54
40794;BME280;26502;51.886;15.604;2023-02-18T02:39:24;100508.16;;;5.73;63.81
40794;BME280;26502;51.886;15.604;2023-02-18T02:44:37;100506.80;;;5.70;64.09
40794;BME280;26502;51.886;15.604;2023-02-18T02:49:50;100513.33;;;5.69;64.41
40794;BME280;26502;51.886;15.604;2023-02-18T02:55:00;100510.84;;;5.71;64.42
40794;BME280;26502;51.886;15.604;2023-02-18T03:00:12;100523.60;;;5.65;64.53
40794;BME280;26502;51.886;15.604;2023-02-18T03:05:29;100523.27;;;5.64;64.79
40794;BME280;26502;51.886;15.604;2023-02-18T03:10:50;100520.58;;;5.67;64.77
40794;BME280;26502;51.886;15.604;2023-02-18T03:16:04;100524.47;;;5.66;64.88
40794;BME280;26502;51.886;15.604;2023-02-18T03:21:17;100520.31;;;5.61;64.83
40794;BME280;26502;51.886;15.604;2023-02-18T03:26:31;100517.73;;;5.57;64.75
40794;BME280;26502;51.886;15.604;2023-02-18T03:31:40;100532.33;;;5.59;64.58
40794;BME280;26502;51.886;15.604;2023-02-18T03:36:50;100533.40;;;5.58;64.56
40794;BME280;26502;51.886;15.604;2023-02-18T03:41:57;100545.23;;;5.56;64.52
40794;BME280;26502;51.886;15.604;2023-02-18T03:47:03;100545.42;;;5.54;64.28
40794;BME280;26502;51.886;15.604;2023-02-18T03:52:10;100549.89;;;5.49;64.28
40794;BME280;26502;51.886;15.604;2023-02-18T03:57:16;100554.61;;;5.52;64.18
40794;BME280;26502;51.886;15.604;2023-02-18T04:02:22;100557.45;;;5.51;64.23
40794;BME280;26502;51.886;15.604;2023-02-18T04:07:28;100550.91;;;5.52;64.23
40794;BME280;26502;51.886;15.604;2023-02-18T04:12:35;100556.19;;;5.54;64.09
40794;BME280;26502;51.886;15.604;2023-02-18T04:17:41;100552.73;;;5.48;64.11
40794;BME280;26502;51.886;15.604;2023-02-18T04:22:47;100559.75;;;5.50;63.98
40794;BME280;26502;51.886;15.604;2023-02-18T04:27:54;100555.14;;;5.53;63.99
40794;BME280;26502;51.886;15.604;2023-02-18T04:33:00;100550.90;;;5.53;64.07
40794;BME280;26502;51.886;15.604;2023-02-18T04:38:06;100557.70;;;5.58;63.95
40794;BME280;26502;51.886;15.604;2023-02-18T04:43:12;100560.33;;;5.59;63.98
40794;BME280;26502;51.886;15.604;2023-02-18T04:48:19;100559.96;;;5.61;64.03
40794;BME280;26502;51.886;15.604;2023-02-18T04:53:25;100557.13;;;5.62;64.13
40794;BME280;26502;51.886;15.604;2023-02-18T04:58:32;100561.16;;;5.63;63.88
40794;BME280;26502;51.886;15.604;2023-02-18T05:03:39;100566.20;;;5.68;63.61
40794;BME280;26502;51.886;15.604;2023-02-18T05:08:45;100565.63;;;5.71;63.45
40794;BME280;26502;51.886;15.604;2023-02-18T05:13:51;100561.34;;;5.75;63.47
40794;BME280;26502;51.886;15.604;2023-02-18T05:18:57;100562.80;;;5.72;63.52
40794;BME280;26502;51.886;15.604;2023-02-18T05:24:04;100574.84;;;5.67;63.67
40794;BME280;26502;51.886;15.604;2023-02-18T05:29:12;100575.16;;;5.70;63.44
40794;BME280;26502;51.886;15.604;2023-02-18T05:34:18;100572.22;;;5.78;63.04
40794;BME280;26502;51.886;15.604;2023-02-18T05:39:24;100577.23;;;5.85;62.58
40794;BME280;26502;51.886;15.604;2023-02-18T05:44:30;100570.55;;;5.85;62.23
40794;BME280;26502;51.886;15.604;2023-02-18T05:49:37;100570.20;;;5.83;62.07
40794;BME280;26502;51.886;15.604;2023-02-18T05:54:44;100570.42;;;5.80;62.18
40794;BME280;26502;51.886;15.604;2023-02-18T05:59:50;100571.69;;;5.79;62.00
40794;BME280;26502;51.886;15.604;2023-02-18T06:04:57;100567.14;;;5.77;62.04
40794;BME280;26502;51.886;15.604;2023-02-18T06:10:04;100568.77;;;5.74;62.16
40794;BME280;26502;51.886;15.604;2023-02-18T06:15:11;100571.58;;;5.75;61.98
40794;BME280;26502;51.886;15.604;2023-02-18T06:20:17;100572.91;;;5.79;61.91
40794;BME280;26502;51.886;15.604;2023-02-18T06:25:23;100573.10;;;5.78;61.65
40794;BME280;26502;51.886;15.604;2023-02-18T06:30:30;100572.92;;;5.79;61.92
40794;BME280;26502;51.886;15.604;2023-02-18T06:35:36;100564.52;;;5.87;61.45
40794;BME280;26502;51.886;15.604;2023-02-18T06:40:42;100577.84;;;5.92;61.22
40794;BME280;26502;51.886;15.604;2023-02-18T06:45:50;100576.25;;;5.93;61.15
40794;BME280;26502;51.886;15.604;2023-02-18T06:50:57;100580.11;;;5.94;61.05
40794;BME280;26502;51.886;15.604;2023-02-18T06:56:04;100579.86;;;6.00;60.54
40794;BME280;26502;51.886;15.604;2023-02-18T07:01:11;100587.69;;;6.08;60.17
40794;BME280;26502;51.886;15.604;2023-02-18T07:06:17;100590.44;;;6.12;60.07
40794;BME280;26502;51.886;15.604;2023-02-18T07:11:23;100591.54;;;6.21;59.94
40794;BME280;26502;51.886;15.604;2023-02-18T07:16:29;100588.48;;;6.24;59.64
40794;BME280;26502;51.886;15.604;2023-02-18T07:21:35;100584.53;;;6.28;59.24
40794;BME280;26502;51.886;15.604;2023-02-18T07:26:41;100595.54;;;6.34;58.97
40794;BME280;26502;51.886;15.604;2023-02-18T07:31:47;100595.48;;;6.39;58.80
40794;BME280;26502;51.886;15.604;2023-02-18T07:36:54;100577.14;;;6.48;57.98
40794;BME280;26502;51.886;15.604;2023-02-18T07:42:00;100584.35;;;6.50;58.19
40794;BME280;26502;51.886;15.604;2023-02-18T07:47:13;100582.73;;;6.52;58.12
40794;BME280;26502;51.886;15.604;2023-02-18T07:52:21;100590.44;;;6.56;58.22
40794;BME280;26502;51.886;15.604;2023-02-18T07:57:27;100589.80;;;6.61;58.22
40794;BME280;26502;51.886;15.604;2023-02-18T08:02:33;100593.56;;;6.68;58.13
40794;BME280;26502;51.886;15.604;2023-02-18T08:07:43;100594.38;;;6.72;58.12
40794;BME280;26502;51.886;15.604;2023-02-18T08:12:49;100603.59;;;6.71;58.20
40794;BME280;26502;51.886;15.604;2023-02-18T08:17:55;100607.70;;;6.66;58.57
40794;BME280;26502;51.886;15.604;2023-02-18T08:23:01;100605.90;;;6.59;59.32
40794;BME280;26502;51.886;15.604;2023-02-18T08:28:07;100606.05;;;6.50;59.88
40794;BME280;26502;51.886;15.604;2023-02-18T08:33:14;100605.89;;;6.50;60.45
40794;BME280;26502;51.886;15.604;2023-02-18T08:38:21;100597.85;;;6.45;60.84
40794;BME280;26502;51.886;15.604;2023-02-18T08:43:28;100591.52;;;6.44;61.38
40794;BME280;26502;51.886;15.604;2023-02-18T08:48:34;100580.52;;;6.47;61.65
40794;BME280;26502;51.886;15.604;2023-02-18T08:53:40;100567.34;;;6.54;61.85
40794;BME280;26502;51.886;15.604;2023-02-18T08:58:47;100558.02;;;6.62;61.91
40794;BME280;26502;51.886;15.604;2023-02-18T09:03:53;100545.38;;;6.68;61.99
40794;BME280;26502;51.886;15.604;2023-02-18T09:09:00;100540.27;;;6.78;61.74
40794;BME280;26502;51.886;15.604;2023-02-18T09:14:06;100530.99;;;6.82;61.39
40794;BME280;26502;51.886;15.604;2023-02-18T09:19:13;100526.40;;;6.83;61.71
40794;BME280;26502;51.886;15.604;2023-02-18T09:24:19;100514.77;;;6.82;61.93
40794;BME280;26502;51.886;15.604;2023-02-18T09:29:25;100520.02;;;6.75;62.34
40794;BME280;26502;51.886;15.604;2023-02-18T09:34:32;100527.64;;;6.64;63.47
40794;BME280;26502;51.886;15.604;2023-02-18T09:39:39;100529.70;;;6.48;64.32
40794;BME280;26502;51.886;15.604;2023-02-18T09:44:48;100532.29;;;6.31;65.45
40794;BME280;26502;51.886;15.604;2023-02-18T09:49:59;100520.14;;;6.08;67.54
40794;BME280;26502;51.886;15.604;2023-02-18T09:55:19;100524.73;;;5.84;68.08
40794;BME280;26502;51.886;15.604;2023-02-18T10:00:29;100517.68;;;5.72;69.81
40794;BME280;26502;51.886;15.604;2023-02-18T10:05:38;100514.52;;;5.60;70.27
40794;BME280;26502;51.886;15.604;2023-02-18T10:10:47;100509.02;;;5.62;70.86
40794;BME280;26502;51.886;15.604;2023-02-18T10:15:53;100506.26;;;5.71;71.15
40794;BME280;26502;51.886;15.604;2023-02-18T10:21:06;100504.26;;;5.74;71.57
40794;BME280;26502;51.886;15.604;2023-02-18T10:26:16;100497.98;;;5.71;72.34
40794;BME280;26502;51.886;15.604;2023-02-18T10:31:29;100496.67;;;5.63;72.91
40794;BME280;26502;51.886;15.604;2023-02-18T10:36:43;100486.71;;;5.70;73.76
40794;BME280;26502;51.886;15.604;2023-02-18T10:41:56;100472.13;;;5.67;74.27
40794;BME280;26502;51.886;15.604;2023-02-18T10:47:15;100459.22;;;5.70;74.67
40794;BME280;26502;51.886;15.604;2023-02-18T10:52:24;100439.96;;;5.73;75.22
40794;BME280;26502;51.886;15.604;2023-02-18T10:57:32;100424.24;;;5.75;75.83
40794;BME280;26502;51.886;15.604;2023-02-18T11:02:39;100412.02;;;5.80;75.70
40794;BME280;26502;51.886;15.604;2023-02-18T11:07:49;100390.94;;;5.85;75.81
40794;BME280;26502;51.886;15.604;2023-02-18T11:12:59;100384.42;;;5.85;75.73
40794;BME280;26502;51.886;15.604;2023-02-18T11:18:28;100369.11;;;5.84;76.09
40794;BME280;26502;51.886;15.604;2023-02-18T11:23:46;100353.94;;;5.85;76.09
40794;BME280;26502;51.886;15.604;2023-02-18T11:28:59;100333.55;;;5.82;75.96
40794;BME280;26502;51.886;15.604;2023-02-18T11:34:15;100320.06;;;5.77;75.83
40794;BME280;26502;51.886;15.604;2023-02-18T11:39:25;100306.00;;;5.76;76.15
40794;BME280;26502;51.886;15.604;2023-02-18T11:44:33;100289.08;;;5.67;76.11
40794;BME280;26502;51.886;15.604;2023-02-18T11:49:42;100273.80;;;5.64;76.42
40794;BME280;26502;51.886;15.604;2023-02-18T11:55:03;100266.96;;;5.62;76.76
40794;BME280;26502;51.886;15.604;2023-02-18T12:00:21;100246.11;;;5.65;76.98
40794;BME280;26502;51.886;15.604;2023-02-18T12:05:28;100222.73;;;5.73;77.17
40794;BME280;26502;51.886;15.604;2023-02-18T12:10:39;100199.77;;;5.75;76.89
40794;BME280;26502;51.886;15.604;2023-02-18T12:15:55;100177.38;;;5.75;77.07
40794;BME280;26502;51.886;15.604;2023-02-18T12:21:16;100154.15;;;5.74;77.02
40794;BME280;26502;51.886;15.604;2023-02-18T12:26:27;100138.34;;;5.72;77.28
40794;BME280;26502;51.886;15.604;2023-02-18T12:31:42;100120.36;;;5.73;77.64
40794;BME280;26502;51.886;15.604;2023-02-18T12:37:02;100099.14;;;5.76;77.70
40794;BME280;26502;51.886;15.604;2023-02-18T12:42:35;100085.21;;;5.76;77.72
40794;BME280;26502;51.886;15.604;2023-02-18T12:48:04;100066.06;;;5.74;77.98
40794;BME280;26502;51.886;15.604;2023-02-18T12:53:32;100037.53;;;5.81;78.40
40794;BME280;26502;51.886;15.604;2023-02-18T12:58:53;100025.53;;;5.89;78.46
40794;BME280;26502;51.886;15.604;2023-02-18T13:04:25;100012.98;;;5.84;78.61
40794;BME280;26502;51.886;15.604;2023-02-18T13:09:43;99997.80;;;5.84;78.78
40794;BME280;26502;51.886;15.604;2023-02-18T13:14:58;99985.75;;;5.88;78.93
40794;BME280;26502;51.886;15.604;2023-02-18T13:20:16;99980.73;;;5.91;79.22
40794;BME280;26502;51.886;15.604;2023-02-18T13:25:24;99972.89;;;5.95;79.56
40794;BME280;26502;51.886;15.604;2023-02-18T13:30:36;99961.95;;;6.03;79.81
40794;BME280;26502;51.886;15.604;2023-02-18T13:35:48;99954.41;;;6.09;79.79
40794;BME280;26502;51.886;15.604;2023-02-18T13:40:58;99953.04;;;6.14;79.87
40794;BME280;26502;51.886;15.604;2023-02-18T13:46:09;99942.52;;;6.19;80.20
40794;BME280;26502;51.886;15.604;2023-02-18T13:51:25;99925.85;;;6.23;80.40
40794;BME280;26502;51.886;15.604;2023-02-18T13:56:34;99917.96;;;6.40;80.65
40794;BME280;26502;51.886;15.604;2023-02-18T14:01:45;99915.20;;;6.64;81.76
40794;BME280;26502;51.886;15.604;2023-02-18T14:07:20;99912.08;;;6.80;81.98
40794;BME280;26502;51.886;15.604;2023-02-18T14:12:37;99911.54;;;7.32;84.37
40794;BME280;26502;51.886;15.604;2023-02-18T14:17:48;99886.60;;;7.67;85.14
40794;BME280;26502;51.886;15.604;2023-02-18T14:22:54;99871.80;;;7.97;86.12
40794;BME280;26502;51.886;15.604;2023-02-18T14:28:03;99865.10;;;8.16;86.36
40794;BME280;26502;51.886;15.604;2023-02-18T14:33:31;99854.41;;;8.44;86.74
40794;BME280;26502;51.886;15.604;2023-02-18T14:38:47;99839.16;;;8.74;87.41
40794;BME280;26502;51.886;15.604;2023-02-18T14:49:37;99827.77;;;9.02;87.37
40794;BME280;26502;51.886;15.604;2023-02-18T14:54:46;99823.67;;;9.12;87.35
40794;BME280;26502;51.886;15.604;2023-02-18T14:59:57;99823.27;;;9.22;87.70
40794;BME280;26502;51.886;15.604;2023-02-18T15:05:15;99817.58;;;9.22;87.82
40794;BME280;26502;51.886;15.604;2023-02-18T15:10:24;99816.41;;;9.21;87.72
40794;BME280;26502;51.886;15.604;2023-02-18T15:15:31;99804.55;;;9.29;88.22
40794;BME280;26502;51.886;15.604;2023-02-18T15:20:38;99802.42;;;9.34;88.00
40794;BME280;26502;51.886;15.604;2023-02-18T15:25:52;99810.71;;;9.34;87.72
40794;BME280;26502;51.886;15.604;2023-02-18T15:31:00;99806.96;;;9.31;87.84
40794;BME280;26502;51.886;15.604;2023-02-18T15:36:13;99804.32;;;9.31;87.92
40794;BME280;26502;51.886;15.604;2023-02-18T15:41:21;99801.92;;;9.33;87.92
40794;BME280;26502;51.886;15.604;2023-02-18T15:46:28;99799.55;;;9.25;87.95
40794;BME280;26502;51.886;15.604;2023-02-18T15:51:34;99813.85;;;9.23;88.23
40794;BME280;26502;51.886;15.604;2023-02-18T15:56:42;99827.70;;;9.13;88.51
40794;BME280;26502;51.886;15.604;2023-02-18T16:01:52;99819.77;;;9.12;88.60
40794;BME280;26502;51.886;15.604;2023-02-18T16:07:20;99825.09;;;9.07;88.82
40794;BME280;26502;51.886;15.604;2023-02-18T16:12:29;99828.01;;;9.09;88.82
40794;BME280;26502;51.886;15.604;2023-02-18T16:17:36;99830.14;;;9.09;88.75
40794;BME280;26502;51.886;15.604;2023-02-18T16:22:49;99828.77;;;9.09;88.93
40794;BME280;26502;51.886;15.604;2023-02-18T16:28:11;99832.30;;;9.09;89.01
40794;BME280;26502;51.886;15.604;2023-02-18T16:33:20;99847.77;;;9.07;88.71
40794;BME280;26502;51.886;15.604;2023-02-18T16:38:26;99862.79;;;9.04;88.98
40794;BME280;26502;51.886;15.604;2023-02-18T16:43:33;99886.95;;;9.02;88.89
40794;BME280;26502;51.886;15.604;2023-02-18T16:48:44;99898.38;;;8.95;88.79
40794;BME280;26502;51.886;15.604;2023-02-18T16:53:51;99907.38;;;8.90;88.83
40794;BME280;26502;51.886;15.604;2023-02-18T16:58:57;99918.77;;;8.89;88.83
40794;BME280;26502;51.886;15.604;2023-02-18T17:04:04;99927.35;;;8.87;88.80
40794;BME280;26502;51.886;15.604;2023-02-18T17:09:16;99940.98;;;8.82;88.65
40794;BME280;26502;51.886;15.604;2023-02-18T17:14:24;99960.98;;;8.78;88.67
40794;BME280;26502;51.886;15.604;2023-02-18T17:19:30;99986.91;;;8.75;88.74
40794;BME280;26502;51.886;15.604;2023-02-18T17:24:36;100024.81;;;8.75;88.61
40794;BME280;26502;51.886;15.604;2023-02-18T17:29:42;100038.21;;;8.71;88.23
40794;BME280;26502;51.886;15.604;2023-02-18T17:34:49;100036.04;;;8.52;87.89
40794;BME280;26502;51.886;15.604;2023-02-18T17:39:55;100056.20;;;8.42;87.69
40794;BME280;26502;51.886;15.604;2023-02-18T17:45:04;100064.83;;;8.37;87.68
40794;BME280;26502;51.886;15.604;2023-02-18T17:50:15;100081.19;;;8.35;87.68
40794;BME280;26502;51.886;15.604;2023-02-18T17:55:24;100096.41;;;8.29;87.58
40794;BME280;26502;51.886;15.604;2023-02-18T18:00:33;100106.02;;;8.22;87.36
40794;BME280;26502;51.886;15.604;2023-02-18T18:05:41;100123.14;;;8.11;87.25
40794;BME280;26502;51.886;15.604;2023-02-18T18:10:50;100129.10;;;8.02;87.12
40794;BME280;26502;51.886;15.604;2023-02-18T18:15:58;100136.20;;;7.95;86.84
40794;BME280;26502;51.886;15.604;2023-02-18T18:21:14;100153.15;;;7.84;86.71
40794;BME280;26502;51.886;15.604;2023-02-18T18:26:23;100171.22;;;7.70;86.50
40794;BME280;26502;51.886;15.604;2023-02-18T18:31:30;100186.63;;;7.57;86.66
40794;BME280;26502;51.886;15.604;2023-02-18T18:36:36;100201.23;;;7.46;86.50
40794;BME280;26502;51.886;15.604;2023-02-18T18:41:45;100210.65;;;7.37;86.60
40794;BME280;26502;51.886;15.604;2023-02-18T18:46:51;100223.35;;;7.31;86.44
40794;BME280;26502;51.886;15.604;2023-02-18T18:51:58;100235.29;;;7.20;86.50
40794;BME280;26502;51.886;15.604;2023-02-18T18:57:10;100234.24;;;7.13;86.40
40794;BME280;26502;51.886;15.604;2023-02-18T19:02:18;100240.59;;;7.06;86.31
40794;BME280;26502;51.886;15.604;2023-02-18T19:07:25;100253.09;;;7.00;86.21
40794;BME280;26502;51.886;15.604;2023-02-18T19:12:32;100256.14;;;6.91;86.07
40794;BME280;26502;51.886;15.604;2023-02-18T19:17:38;100264.00;;;6.87;86.16
40794;BME280;26502;51.886;15.604;2023-02-18T19:22:47;100278.36;;;6.84;86.12
40794;BME280;26502;51.886;15.604;2023-02-18T19:27:55;100288.58;;;6.78;85.94
40794;BME280;26502;51.886;15.604;2023-02-18T19:33:03;100305.47;;;6.72;85.92
40794;BME280;26502;51.886;15.604;2023-02-18T19:38:11;100328.67;;;6.68;85.82
40794;BME280;26502;51.886;15.604;2023-02-18T19:43:18;100339.84;;;6.66;85.86
40794;BME280;26502;51.886;15.604;2023-02-18T19:48:26;100341.82;;;6.64;85.75
40794;BME280;26502;51.886;15.604;2023-02-18T19:53:32;100345.73;;;6.64;85.76
40794;BME280;26502;51.886;15.604;2023-02-18T19:58:39;100350.34;;;6.62;85.69
40794;BME280;26502;51.886;15.604;2023-02-18T20:03:45;100355.58;;;6.56;85.61
40794;BME280;26502;51.886;15.604;2023-02-18T20:08:51;100379.08;;;6.46;85.55
40794;BME280;26502;51.886;15.604;2023-02-18T20:13:57;100389.11;;;6.39;85.30
40794;BME280;26502;51.886;15.604;2023-02-18T20:19:04;100400.65;;;6.34;85.32
40794;BME280;26502;51.886;15.604;2023-02-18T20:24:11;100408.71;;;6.28;85.29
40794;BME280;26502;51.886;15.604;2023-02-18T20:29:18;100419.73;;;6.15;85.17
40794;BME280;26502;51.886;15.604;2023-02-18T20:34:26;100421.78;;;6.08;85.33
40794;BME280;26502;51.886;15.604;2023-02-18T20:39:33;100432.63;;;6.03;85.29
40794;BME280;26502;51.886;15.604;2023-02-18T20:44:39;100441.34;;;5.98;85.19
40794;BME280;26502;51.886;15.604;2023-02-18T20:49:45;100447.52;;;5.95;85.15
40794;BME280;26502;51.886;15.604;2023-02-18T20:54:52;100434.16;;;5.94;85.11
40794;BME280;26502;51.886;15.604;2023-02-18T20:59:58;100428.70;;;5.93;85.09
40794;BME280;26502;51.886;15.604;2023-02-18T21:05:05;100433.14;;;5.92;84.98
40794;BME280;26502;51.886;15.604;2023-02-18T21:15:19;100447.20;;;5.73;84.83
40794;BME280;26502;51.886;15.604;2023-02-18T21:20:25;100457.48;;;5.68;84.89
40794;BME280;26502;51.886;15.604;2023-02-18T21:25:31;100457.70;;;5.66;85.02
40794;BME280;26502;51.886;15.604;2023-02-18T21:30:39;100449.27;;;5.64;84.98
40794;BME280;26502;51.886;15.604;2023-02-18T21:35:48;100445.60;;;5.62;84.95
40794;BME280;26502;51.886;15.604;2023-02-18T21:40:54;100454.45;;;5.59;85.01
40794;BME280;26502;51.886;15.604;2023-02-18T21:46:08;100459.03;;;5.59;84.97
40794;BME280;26502;51.886;15.604;2023-02-18T21:51:15;100470.80;;;5.50;84.97
40794;BME280;26502;51.886;15.604;2023-02-18T21:56:43;100472.52;;;5.53;85.16
40794;BME280;26502;51.886;15.604;2023-02-18T22:01:49;100472.34;;;5.53;84.86
40794;BME280;26502;51.886;15.604;2023-02-18T22:06:55;100470.31;;;5.48;84.94
40794;BME280;26502;51.886;15.604;2023-02-18T22:12:02;100471.00;;;5.48;84.86
40794;BME280;26502;51.886;15.604;2023-02-18T22:17:09;100472.21;;;5.49;84.90
40794;BME280;26502;51.886;15.604;2023-02-18T22:22:15;100468.02;;;5.48;84.93
40794;BME280;26502;51.886;15.604;2023-02-18T22:27:22;100468.88;;;5.49;84.93
40794;BME280;26502;51.886;15.604;2023-02-18T22:32:30;100470.26;;;5.51;85.00
40794;BME280;26502;51.886;15.604;2023-02-18T22:37:38;100480.17;;;5.49;84.79
40794;BME280;26502;51.886;15.604;2023-02-18T22:42:44;100476.22;;;5.41;84.71
40794;BME280;26502;51.886;15.604;2023-02-18T22:47:50;100480.64;;;5.40;84.76
40794;BME280;26502;51.886;15.604;2023-02-18T22:52:56;100491.83;;;5.33;84.76
40794;BME280;26502;51.886;15.604;2023-02-18T22:58:02;100495.24;;;5.28;85.01
40794;BME280;26502;51.886;15.604;2023-02-18T23:03:09;100495.65;;;5.24;84.63
40794;BME280;26502;51.886;15.604;2023-02-18T23:08:15;100493.04;;;5.22;84.88
40794;BME280;26502;51.886;15.604;2023-02-18T23:13:21;100499.23;;;5.20;84.91
40794;BME280;26502;51.886;15.604;2023-02-18T23:18:28;100493.43;;;5.19;84.74
40794;BME280;26502;51.886;15.604;2023-02-18T23:23:36;100491.66;;;5.20;84.97
40794;BME280;26502;51.886;15.604;2023-02-18T23:28:43;100497.42;;;5.22;85.07
40794;BME280;26502;51.886;15.604;2023-02-18T23:33:56;100492.50;;;5.22;84.90
40794;BME280;26502;51.886;15.604;2023-02-18T23:39:05;100486.08;;;5.29;85.04
40794;BME280;26502;51.886;15.604;2023-02-18T23:44:15;100486.57;;;5.31;84.82
40794;BME280;26502;51.886;15.604;2023-02-18T23:49:24;100481.09;;;5.32;84.99
40794;BME280;26502;51.886;15.604;2023-02-18T23:54:32;100475.29;;;5.32;85.00
40794;BME280;26502;51.886;15.604;2023-02-18T23:59:38;100481.88;;;5.27;84.94
